sensor_id;sensor_type;location;lat;lon;timestamp;P1;durP1;ratioP1;P2;durP2;ratioP2
48685;SDS011;34485;51.536;3.816;2023-12-04T00:00:40;6.43;;;5.40;;
48685;SDS011;34485;51.536;3.816;2023-12-04T00:03:06;11.80;;;7.63;;
48685;SDS011;34485;51.536;3.816;2023-12-04T00:05:31;6.67;;;4.87;;
48685;SDS011;34485;51.536;3.816;2023-12-04T00:07:57;9.48;;;6.30;;
48685;SDS011;34485;51.536;3.816;2023-12-04T00:10:23;10.33;;;5.90;;
48685;SDS011;34485;51.536;3.816;2023-12-04T00:12:49;8.77;;;5.78;;
48685;SDS011;34485;51.536;3.816;2023-12-04T00:15:16;9.27;;;6.82;;
48685;SDS011;34485;51.536;3.816;2023-12-04T00:17:44;6.25;;;5.07;;
48685;SDS011;34485;51.536;3.816;2023-12-04T00:20:10;5.65;;;4.85;;
48685;SDS011;34485;51.536;3.816;2023-12-04T00:22:36;8.70;;;5.63;;
48685;SDS011;34485;51.536;3.816;2023-12-04T00:25:02;9.55;;;6.05;;
48685;SDS011;34485;51.536;3.816;2023-12-04T00:27:29;11.98;;;6.95;;
48685;SDS011;34485;51.536;3.816;2023-12-04T00:29:55;12.17;;;7.17;;
48685;SDS011;34485;51.536;3.816;2023-12-04T00:32:21;11.50;;;5.72;;
48685;SDS011;34485;51.536;3.816;2023-12-04T00:34:47;15.20;;;6.10;;
48685;SDS011;34485;51.536;3.816;2023-12-04T00:37:12;9.50;;;6.00;;
48685;SDS011;34485;51.536;3.816;2023-12-04T00:39:38;12.73;;;6.85;;
48685;SDS011;34485;51.536;3.816;2023-12-04T00:42:04;11.83;;;6.23;;
48685;SDS011;34485;51.536;3.816;2023-12-04T00:44:30;7.55;;;5.28;;
48685;SDS011;34485;51.536;3.816;2023-12-04T00:46:56;7.82;;;4.90;;
48685;SDS011;34485;51.536;3.816;2023-12-04T00:49:22;8.03;;;6.13;;
48685;SDS011;34485;51.536;3.816;2023-12-04T00:51:48;7.47;;;4.80;;
48685;SDS011;34485;51.536;3.816;2023-12-04T00:54:14;9.63;;;5.55;;
48685;SDS011;34485;51.536;3.816;2023-12-04T00:56:40;5.73;;;5.10;;
48685;SDS011;34485;51.536;3.816;2023-12-04T00:59:07;10.57;;;5.95;;
48685;SDS011;34485;51.536;3.816;2023-12-04T01:01:35;6.85;;;4.47;;
48685;SDS011;34485;51.536;3.816;2023-12-04T01:04:01;9.00;;;5.82;;
48685;SDS011;34485;51.536;3.816;2023-12-04T01:06:27;6.65;;;5.68;;
48685;SDS011;34485;51.536;3.816;2023-12-04T01:08:53;8.83;;;5.63;;
48685;SDS011;34485;51.536;3.816;2023-12-04T01:11:19;8.05;;;5.75;;
48685;SDS011;34485;51.536;3.816;2023-12-04T01:13:45;7.60;;;5.93;;
48685;SDS011;34485;51.536;3.816;2023-12-04T01:16:10;5.07;;;4.35;;
48685;SDS011;34485;51.536;3.816;2023-12-04T01:18:37;4.72;;;3.83;;
48685;SDS011;34485;51.536;3.816;2023-12-04T01:21:02;6.63;;;5.30;;
48685;SDS011;34485;51.536;3.816;2023-12-04T01:23:28;5.88;;;5.13;;
48685;SDS011;34485;51.536;3.816;2023-12-04T01:25:54;6.63;;;4.80;;
48685;SDS011;34485;51.536;3.816;2023-12-04T01:28:20;4.30;;;3.90;;
48685;SDS011;34485;51.536;3.816;2023-12-04T01:30:45;8.85;;;4.97;;
48685;SDS011;34485;51.536;3.816;2023-12-04T01:33:11;4.77;;;3.87;;
48685;SDS011;34485;51.536;3.816;2023-12-04T01:35:37;5.30;;;4.80;;
48685;SDS011;34485;51.536;3.816;2023-12-04T01:38:02;5.07;;;4.47;;
48685;SDS011;34485;51.536;3.816;2023-12-04T01:40:28;4.28;;;3.38;;
48685;SDS011;34485;51.536;3.816;2023-12-04T01:42:54;7.10;;;4.50;;
48685;SDS011;34485;51.536;3.816;2023-12-04T01:45:19;5.15;;;3.80;;
48685;SDS011;34485;51.536;3.816;2023-12-04T01:47:45;7.10;;;5.03;;
48685;SDS011;34485;51.536;3.816;2023-12-04T01:50:11;5.38;;;3.95;;
48685;SDS011;34485;51.536;3.816;2023-12-04T01:52:39;12.85;;;5.60;;
48685;SDS011;34485;51.536;3.816;2023-12-04T01:55:05;6.00;;;4.43;;
48685;SDS011;34485;51.536;3.816;2023-12-04T01:57:34;8.73;;;5.50;;
48685;SDS011;34485;51.536;3.816;2023-12-04T02:00:00;6.70;;;5.35;;
48685;SDS011;34485;51.536;3.816;2023-12-04T02:02:26;8.40;;;5.45;;
48685;SDS011;34485;51.536;3.816;2023-12-04T02:04:56;4.45;;;4.05;;
48685;SDS011;34485;51.536;3.816;2023-12-04T02:07:24;4.68;;;4.28;;
48685;SDS011;34485;51.536;3.816;2023-12-04T02:09:50;6.43;;;5.25;;
48685;SDS011;34485;51.536;3.816;2023-12-04T02:12:16;4.03;;;3.63;;
48685;SDS011;34485;51.536;3.816;2023-12-04T02:14:42;4.25;;;3.95;;
48685;SDS011;34485;51.536;3.816;2023-12-04T02:17:08;4.70;;;4.20;;
48685;SDS011;34485;51.536;3.816;2023-12-04T02:19:35;6.45;;;4.80;;
48685;SDS011;34485;51.536;3.816;2023-12-04T02:22:01;5.28;;;4.50;;
48685;SDS011;34485;51.536;3.816;2023-12-04T02:24:26;5.63;;;4.77;;
48685;SDS011;34485;51.536;3.816;2023-12-04T02:26:55;5.93;;;4.43;;
48685;SDS011;34485;51.536;3.816;2023-12-04T02:29:28;5.53;;;4.25;;
48685;SDS011;34485;51.536;3.816;2023-12-04T02:31:57;3.22;;;2.97;;
48685;SDS011;34485;51.536;3.816;2023-12-04T02:34:26;4.00;;;3.47;;
48685;SDS011;34485;51.536;3.816;2023-12-04T02:36:54;5.00;;;3.93;;
48685;SDS011;34485;51.536;3.816;2023-12-04T02:39:21;5.82;;;4.22;;
48685;SDS011;34485;51.536;3.816;2023-12-04T02:41:47;6.43;;;4.68;;
48685;SDS011;34485;51.536;3.816;2023-12-04T02:44:13;7.88;;;5.00;;
48685;SDS011;34485;51.536;3.816;2023-12-04T02:46:39;4.97;;;4.40;;
48685;SDS011;34485;51.536;3.816;2023-12-04T02:49:05;3.47;;;3.10;;
48685;SDS011;34485;51.536;3.816;2023-12-04T02:51:31;5.22;;;4.35;;
48685;SDS011;34485;51.536;3.816;2023-12-04T02:53:56;4.72;;;4.28;;
48685;SDS011;34485;51.536;3.816;2023-12-04T02:56:22;4.47;;;4.07;;
48685;SDS011;34485;51.536;3.816;2023-12-04T02:58:48;5.13;;;4.32;;
48685;SDS011;34485;51.536;3.816;2023-12-04T03:01:13;10.57;;;4.00;;
48685;SDS011;34485;51.536;3.816;2023-12-04T03:03:39;5.27;;;4.33;;
48685;SDS011;34485;51.536;3.816;2023-12-04T03:06:05;4.28;;;3.90;;
48685;SDS011;34485;51.536;3.816;2023-12-04T03:08:31;5.13;;;4.63;;
48685;SDS011;34485;51.536;3.816;2023-12-04T03:10:56;5.63;;;3.97;;
48685;SDS011;34485;51.536;3.816;2023-12-04T03:13:22;5.05;;;4.40;;
48685;SDS011;34485;51.536;3.816;2023-12-04T03:15:48;5.53;;;3.60;;
48685;SDS011;34485;51.536;3.816;2023-12-04T03:18:13;5.65;;;4.40;;
48685;SDS011;34485;51.536;3.816;2023-12-04T03:20:39;5.30;;;4.00;;
48685;SDS011;34485;51.536;3.816;2023-12-04T03:23:05;4.33;;;3.73;;
48685;SDS011;34485;51.536;3.816;2023-12-04T03:25:30;5.13;;;4.57;;
48685;SDS011;34485;51.536;3.816;2023-12-04T03:27:56;4.80;;;4.30;;
48685;SDS011;34485;51.536;3.816;2023-12-04T03:30:22;4.28;;;3.92;;
48685;SDS011;34485;51.536;3.816;2023-12-04T03:32:47;4.23;;;3.20;;
48685;SDS011;34485;51.536;3.816;2023-12-04T03:35:13;5.28;;;4.72;;
48685;SDS011;34485;51.536;3.816;2023-12-04T03:37:39;5.03;;;3.30;;
48685;SDS011;34485;51.536;3.816;2023-12-04T03:40:05;5.80;;;4.18;;
48685;SDS011;34485;51.536;3.816;2023-12-04T03:42:31;4.37;;;3.70;;
48685;SDS011;34485;51.536;3.816;2023-12-04T03:44:56;4.38;;;3.78;;
48685;SDS011;34485;51.536;3.816;2023-12-04T03:47:22;6.20;;;4.60;;
48685;SDS011;34485;51.536;3.816;2023-12-04T03:49:48;7.30;;;3.50;;
48685;SDS011;34485;51.536;3.816;2023-12-04T03:52:14;6.15;;;4.00;;
48685;SDS011;34485;51.536;3.816;2023-12-04T03:54:40;6.17;;;4.10;;
48685;SDS011;34485;51.536;3.816;2023-12-04T03:57:05;5.47;;;4.53;;
48685;SDS011;34485;51.536;3.816;2023-12-04T03:59:31;4.50;;;4.07;;
48685;SDS011;34485;51.536;3.816;2023-12-04T04:01:56;4.90;;;3.60;;
48685;SDS011;34485;51.536;3.816;2023-12-04T04:04:22;4.40;;;3.53;;
48685;SDS011;34485;51.536;3.816;2023-12-04T04:06:48;7.10;;;5.40;;
48685;SDS011;34485;51.536;3.816;2023-12-04T04:09:13;3.25;;;2.95;;
48685;SDS011;34485;51.536;3.816;2023-12-04T04:11:39;4.00;;;3.53;;
48685;SDS011;34485;51.536;3.816;2023-12-04T04:14:05;5.60;;;4.30;;
48685;SDS011;34485;51.536;3.816;2023-12-04T04:16:31;4.57;;;4.00;;
48685;SDS011;34485;51.536;3.816;2023-12-04T04:18:56;3.85;;;3.25;;
48685;SDS011;34485;51.536;3.816;2023-12-04T04:21:22;4.80;;;4.30;;
48685;SDS011;34485;51.536;3.816;2023-12-04T04:23:48;3.88;;;3.50;;
48685;SDS011;34485;51.536;3.816;2023-12-04T04:26:13;3.43;;;3.13;;
48685;SDS011;34485;51.536;3.816;2023-12-04T04:28:39;6.93;;;3.85;;
48685;SDS011;34485;51.536;3.816;2023-12-04T04:31:05;4.07;;;3.77;;
48685;SDS011;34485;51.536;3.816;2023-12-04T04:33:31;4.32;;;3.92;;
48685;SDS011;34485;51.536;3.816;2023-12-04T04:35:56;4.10;;;3.73;;
48685;SDS011;34485;51.536;3.816;2023-12-04T04:38:22;4.25;;;3.85;;
48685;SDS011;34485;51.536;3.816;2023-12-04T04:40:47;4.83;;;3.93;;
48685;SDS011;34485;51.536;3.816;2023-12-04T04:43:13;5.65;;;3.90;;
48685;SDS011;34485;51.536;3.816;2023-12-04T04:45:39;4.13;;;3.63;;
48685;SDS011;34485;51.536;3.816;2023-12-04T04:48:04;5.83;;;4.10;;
48685;SDS011;34485;51.536;3.816;2023-12-04T04:50:30;5.55;;;3.47;;
48685;SDS011;34485;51.536;3.816;2023-12-04T04:52:56;5.30;;;4.07;;
48685;SDS011;34485;51.536;3.816;2023-12-04T04:55:21;3.22;;;3.03;;
48685;SDS011;34485;51.536;3.816;2023-12-04T04:57:47;3.47;;;2.80;;
48685;SDS011;34485;51.536;3.816;2023-12-04T05:00:13;4.38;;;3.80;;
48685;SDS011;34485;51.536;3.816;2023-12-04T05:02:41;3.17;;;2.90;;
48685;SDS011;34485;51.536;3.816;2023-12-04T05:05:06;4.18;;;3.88;;
48685;SDS011;34485;51.536;3.816;2023-12-04T05:07:32;3.55;;;3.25;;
48685;SDS011;34485;51.536;3.816;2023-12-04T05:09:58;5.05;;;3.85;;
48685;SDS011;34485;51.536;3.816;2023-12-04T05:12:24;4.50;;;3.87;;
48685;SDS011;34485;51.536;3.816;2023-12-04T05:14:49;5.45;;;3.95;;
48685;SDS011;34485;51.536;3.816;2023-12-04T05:17:15;5.40;;;3.27;;
48685;SDS011;34485;51.536;3.816;2023-12-04T05:19:41;4.90;;;4.20;;
48685;SDS011;34485;51.536;3.816;2023-12-04T05:22:07;6.37;;;4.30;;
48685;SDS011;34485;51.536;3.816;2023-12-04T05:24:33;3.83;;;3.40;;
48685;SDS011;34485;51.536;3.816;2023-12-04T05:27:00;3.40;;;3.08;;
48685;SDS011;34485;51.536;3.816;2023-12-04T05:29:27;5.85;;;3.88;;
48685;SDS011;34485;51.536;3.816;2023-12-04T05:31:53;4.17;;;3.77;;
48685;SDS011;34485;51.536;3.816;2023-12-04T05:34:18;4.67;;;3.77;;
48685;SDS011;34485;51.536;3.816;2023-12-04T05:36:44;4.18;;;2.78;;
48685;SDS011;34485;51.536;3.816;2023-12-04T05:39:10;3.73;;;3.23;;
48685;SDS011;34485;51.536;3.816;2023-12-04T05:41:35;4.88;;;3.92;;
48685;SDS011;34485;51.536;3.816;2023-12-04T05:44:01;3.23;;;2.93;;
48685;SDS011;34485;51.536;3.816;2023-12-04T05:46:27;4.68;;;3.75;;
48685;SDS011;34485;51.536;3.816;2023-12-04T05:48:53;4.10;;;3.70;;
48685;SDS011;34485;51.536;3.816;2023-12-04T05:51:18;4.40;;;4.00;;
48685;SDS011;34485;51.536;3.816;2023-12-04T05:53:44;3.78;;;3.47;;
48685;SDS011;34485;51.536;3.816;2023-12-04T05:56:10;4.77;;;3.87;;
48685;SDS011;34485;51.536;3.816;2023-12-04T05:58:36;3.50;;;2.67;;
48685;SDS011;34485;51.536;3.816;2023-12-04T06:01:01;3.90;;;3.60;;
48685;SDS011;34485;51.536;3.816;2023-12-04T06:03:27;4.45;;;3.85;;
48685;SDS011;34485;51.536;3.816;2023-12-04T06:05:53;5.77;;;4.10;;
48685;SDS011;34485;51.536;3.816;2023-12-04T06:08:19;4.15;;;3.70;;
48685;SDS011;34485;51.536;3.816;2023-12-04T06:10:45;4.57;;;4.17;;
48685;SDS011;34485;51.536;3.816;2023-12-04T06:13:11;3.42;;;3.15;;
48685;SDS011;34485;51.536;3.816;2023-12-04T06:15:37;4.37;;;4.00;;
48685;SDS011;34485;51.536;3.816;2023-12-04T06:18:02;3.28;;;2.97;;
48685;SDS011;34485;51.536;3.816;2023-12-04T06:20:29;8.70;;;3.75;;
48685;SDS011;34485;51.536;3.816;2023-12-04T06:22:55;3.37;;;3.10;;
48685;SDS011;34485;51.536;3.816;2023-12-04T06:25:21;6.03;;;4.13;;
48685;SDS011;34485;51.536;3.816;2023-12-04T06:27:47;7.47;;;3.85;;
48685;SDS011;34485;51.536;3.816;2023-12-04T06:30:13;4.03;;;3.40;;
48685;SDS011;34485;51.536;3.816;2023-12-04T06:32:40;5.30;;;3.67;;
48685;SDS011;34485;51.536;3.816;2023-12-04T06:35:06;3.70;;;3.33;;
48685;SDS011;34485;51.536;3.816;2023-12-04T06:37:32;4.30;;;3.67;;
48685;SDS011;34485;51.536;3.816;2023-12-04T06:39:59;4.60;;;2.87;;
48685;SDS011;34485;51.536;3.816;2023-12-04T06:42:27;5.97;;;3.67;;
48685;SDS011;34485;51.536;3.816;2023-12-04T06:44:53;4.05;;;3.65;;
48685;SDS011;34485;51.536;3.816;2023-12-04T06:47:21;6.30;;;4.03;;
48685;SDS011;34485;51.536;3.816;2023-12-04T06:49:47;6.03;;;4.28;;
48685;SDS011;34485;51.536;3.816;2023-12-04T06:52:13;6.17;;;4.67;;
48685;SDS011;34485;51.536;3.816;2023-12-04T06:54:39;3.53;;;3.00;;
48685;SDS011;34485;51.536;3.816;2023-12-04T06:57:04;4.22;;;3.92;;
48685;SDS011;34485;51.536;3.816;2023-12-04T06:59:30;8.53;;;4.23;;
48685;SDS011;34485;51.536;3.816;2023-12-04T07:01:56;3.13;;;2.83;;
48685;SDS011;34485;51.536;3.816;2023-12-04T07:04:22;5.50;;;3.63;;
48685;SDS011;34485;51.536;3.816;2023-12-04T07:06:48;4.07;;;3.57;;
48685;SDS011;34485;51.536;3.816;2023-12-04T07:09:14;4.70;;;4.22;;
48685;SDS011;34485;51.536;3.816;2023-12-04T07:11:42;4.30;;;3.33;;
48685;SDS011;34485;51.536;3.816;2023-12-04T07:16:43;4.53;;;3.67;;
48685;SDS011;34485;51.536;3.816;2023-12-04T07:19:09;4.72;;;2.90;;
48685;SDS011;34485;51.536;3.816;2023-12-04T07:21:36;3.40;;;3.03;;
48685;SDS011;34485;51.536;3.816;2023-12-04T07:24:02;3.90;;;3.45;;
48685;SDS011;34485;51.536;3.816;2023-12-04T07:26:28;3.40;;;3.10;;
48685;SDS011;34485;51.536;3.816;2023-12-04T07:28:55;4.05;;;3.70;;
48685;SDS011;34485;51.536;3.816;2023-12-04T07:31:20;5.57;;;4.13;;
48685;SDS011;34485;51.536;3.816;2023-12-04T07:33:46;4.13;;;3.33;;
48685;SDS011;34485;51.536;3.816;2023-12-04T07:36:13;3.80;;;3.50;;
48685;SDS011;34485;51.536;3.816;2023-12-04T07:38:38;4.33;;;3.97;;
48685;SDS011;34485;51.536;3.816;2023-12-04T07:41:04;3.85;;;3.55;;
48685;SDS011;34485;51.536;3.816;2023-12-04T07:43:30;3.23;;;2.90;;
48685;SDS011;34485;51.536;3.816;2023-12-04T07:45:56;3.60;;;2.70;;
48685;SDS011;34485;51.536;3.816;2023-12-04T07:48:22;5.38;;;3.67;;
48685;SDS011;34485;51.536;3.816;2023-12-04T07:50:48;3.77;;;3.43;;
48685;SDS011;34485;51.536;3.816;2023-12-04T07:53:14;2.97;;;2.77;;
48685;SDS011;34485;51.536;3.816;2023-12-04T07:55:40;4.13;;;3.42;;
48685;SDS011;34485;51.536;3.816;2023-12-04T07:58:05;5.93;;;4.77;;
48685;SDS011;34485;51.536;3.816;2023-12-04T08:00:31;5.38;;;4.22;;
48685;SDS011;34485;51.536;3.816;2023-12-04T08:02:57;4.22;;;3.58;;
48685;SDS011;34485;51.536;3.816;2023-12-04T08:05:23;4.53;;;3.13;;
48685;SDS011;34485;51.536;3.816;2023-12-04T08:07:49;4.63;;;3.50;;
48685;SDS011;34485;51.536;3.816;2023-12-04T08:10:14;3.80;;;3.50;;
48685;SDS011;34485;51.536;3.816;2023-12-04T08:12:43;4.07;;;3.53;;
48685;SDS011;34485;51.536;3.816;2023-12-04T08:15:10;4.03;;;3.42;;
48685;SDS011;34485;51.536;3.816;2023-12-04T08:17:36;3.67;;;3.10;;
48685;SDS011;34485;51.536;3.816;2023-12-04T08:20:02;3.53;;;3.23;;
48685;SDS011;34485;51.536;3.816;2023-12-04T08:22:29;3.28;;;3.00;;
48685;SDS011;34485;51.536;3.816;2023-12-04T08:24:54;5.25;;;4.75;;
48685;SDS011;34485;51.536;3.816;2023-12-04T08:27:20;3.17;;;2.63;;
48685;SDS011;34485;51.536;3.816;2023-12-04T08:29:46;3.97;;;3.67;;
48685;SDS011;34485;51.536;3.816;2023-12-04T08:32:11;4.27;;;3.80;;
48685;SDS011;34485;51.536;3.816;2023-12-04T08:34:37;3.80;;;3.50;;
48685;SDS011;34485;51.536;3.816;2023-12-04T08:37:03;4.43;;;3.87;;
48685;SDS011;34485;51.536;3.816;2023-12-04T08:39:28;4.57;;;4.17;;
48685;SDS011;34485;51.536;3.816;2023-12-04T08:41:54;4.90;;;4.50;;
48685;SDS011;34485;51.536;3.816;2023-12-04T08:44:20;3.85;;;3.55;;
48685;SDS011;34485;51.536;3.816;2023-12-04T08:46:46;3.50;;;3.20;;
48685;SDS011;34485;51.536;3.816;2023-12-04T08:49:11;4.30;;;3.85;;
48685;SDS011;34485;51.536;3.816;2023-12-04T08:51:37;4.13;;;3.60;;
48685;SDS011;34485;51.536;3.816;2023-12-04T08:54:03;4.65;;;4.13;;
48685;SDS011;34485;51.536;3.816;2023-12-04T08:56:29;4.47;;;3.17;;
48685;SDS011;34485;51.536;3.816;2023-12-04T08:58:55;3.30;;;3.00;;
48685;SDS011;34485;51.536;3.816;2023-12-04T09:01:22;4.35;;;3.95;;
48685;SDS011;34485;51.536;3.816;2023-12-04T09:03:48;5.63;;;3.90;;
48685;SDS011;34485;51.536;3.816;2023-12-04T09:06:14;6.63;;;3.95;;
48685;SDS011;34485;51.536;3.816;2023-12-04T09:08:40;4.40;;;4.00;;
48685;SDS011;34485;51.536;3.816;2023-12-04T09:11:06;4.65;;;3.95;;
48685;SDS011;34485;51.536;3.816;2023-12-04T09:13:32;5.25;;;3.97;;
48685;SDS011;34485;51.536;3.816;2023-12-04T09:15:59;6.00;;;4.47;;
48685;SDS011;34485;51.536;3.816;2023-12-04T09:18:25;4.53;;;4.13;;
48685;SDS011;34485;51.536;3.816;2023-12-04T09:20:50;4.88;;;4.47;;
48685;SDS011;34485;51.536;3.816;2023-12-04T09:23:16;4.07;;;3.67;;
48685;SDS011;34485;51.536;3.816;2023-12-04T09:25:42;4.38;;;3.97;;
48685;SDS011;34485;51.536;3.816;2023-12-04T09:28:07;5.60;;;4.73;;
48685;SDS011;34485;51.536;3.816;2023-12-04T09:30:33;3.58;;;3.28;;
48685;SDS011;34485;51.536;3.816;2023-12-04T09:33:01;3.70;;;3.40;;
48685;SDS011;34485;51.536;3.816;2023-12-04T09:35:26;5.38;;;4.75;;
48685;SDS011;34485;51.536;3.816;2023-12-04T09:37:52;4.33;;;3.93;;
48685;SDS011;34485;51.536;3.816;2023-12-04T09:40:19;5.80;;;4.38;;
48685;SDS011;34485;51.536;3.816;2023-12-04T09:42:45;11.82;;;4.07;;
48685;SDS011;34485;51.536;3.816;2023-12-04T09:45:11;6.15;;;5.00;;
48685;SDS011;34485;51.536;3.816;2023-12-04T09:47:38;3.50;;;3.30;;
48685;SDS011;34485;51.536;3.816;2023-12-04T09:50:03;5.63;;;4.68;;
48685;SDS011;34485;51.536;3.816;2023-12-04T09:52:30;5.63;;;4.05;;
48685;SDS011;34485;51.536;3.816;2023-12-04T09:54:59;9.38;;;5.20;;
48685;SDS011;34485;51.536;3.816;2023-12-04T09:57:24;3.72;;;3.53;;
48685;SDS011;34485;51.536;3.816;2023-12-04T09:59:51;5.43;;;4.25;;
48685;SDS011;34485;51.536;3.816;2023-12-04T10:02:18;4.18;;;3.80;;
48685;SDS011;34485;51.536;3.816;2023-12-04T10:04:44;3.10;;;2.47;;
48685;SDS011;34485;51.536;3.816;2023-12-04T10:07:11;3.25;;;2.95;;
48685;SDS011;34485;51.536;3.816;2023-12-04T10:09:37;4.05;;;3.75;;
48685;SDS011;34485;51.536;3.816;2023-12-04T10:12:03;4.03;;;3.47;;
48685;SDS011;34485;51.536;3.816;2023-12-04T10:14:31;7.00;;;4.65;;
48685;SDS011;34485;51.536;3.816;2023-12-04T10:16:56;3.80;;;3.47;;
48685;SDS011;34485;51.536;3.816;2023-12-04T10:19:23;7.47;;;5.23;;
48685;SDS011;34485;51.536;3.816;2023-12-04T10:21:55;4.68;;;4.22;;
48685;SDS011;34485;51.536;3.816;2023-12-04T10:24:34;8.25;;;4.50;;
48685;SDS011;34485;51.536;3.816;2023-12-04T10:27:04;5.15;;;4.70;;
48685;SDS011;34485;51.536;3.816;2023-12-04T10:29:39;4.67;;;3.90;;
48685;SDS011;34485;51.536;3.816;2023-12-04T10:32:18;4.63;;;3.78;;
48685;SDS011;34485;51.536;3.816;2023-12-04T10:34:46;4.00;;;3.60;;
48685;SDS011;34485;51.536;3.816;2023-12-04T10:37:12;5.20;;;4.18;;
48685;SDS011;34485;51.536;3.816;2023-12-04T10:39:48;4.30;;;3.90;;
48685;SDS011;34485;51.536;3.816;2023-12-04T10:42:28;5.70;;;4.97;;
48685;SDS011;34485;51.536;3.816;2023-12-04T10:44:57;6.30;;;4.15;;
48685;SDS011;34485;51.536;3.816;2023-12-04T10:47:24;4.72;;;4.20;;
48685;SDS011;34485;51.536;3.816;2023-12-04T10:49:51;5.07;;;3.88;;
48685;SDS011;34485;51.536;3.816;2023-12-04T10:52:18;6.47;;;4.47;;
48685;SDS011;34485;51.536;3.816;2023-12-04T10:54:49;3.97;;;3.60;;
48685;SDS011;34485;51.536;3.816;2023-12-04T10:57:31;5.13;;;4.05;;
48685;SDS011;34485;51.536;3.816;2023-12-04T11:00:04;4.38;;;4.03;;
48685;SDS011;34485;51.536;3.816;2023-12-04T11:02:33;7.88;;;4.32;;
48685;SDS011;34485;51.536;3.816;2023-12-04T11:05:07;6.70;;;4.55;;
48685;SDS011;34485;51.536;3.816;2023-12-04T11:07:40;3.53;;;3.27;;
48685;SDS011;34485;51.536;3.816;2023-12-04T11:10:08;4.13;;;3.80;;
48685;SDS011;34485;51.536;3.816;2023-12-04T11:12:36;3.40;;;3.10;;
48685;SDS011;34485;51.536;3.816;2023-12-04T11:15:07;6.47;;;4.10;;
48685;SDS011;34485;51.536;3.816;2023-12-04T11:17:38;6.28;;;5.68;;
48685;SDS011;34485;51.536;3.816;2023-12-04T11:20:09;3.37;;;3.07;;
48685;SDS011;34485;51.536;3.816;2023-12-04T11:22:38;4.10;;;3.70;;
48685;SDS011;34485;51.536;3.816;2023-12-04T11:25:05;6.65;;;5.93;;
48685;SDS011;34485;51.536;3.816;2023-12-04T11:27:33;5.45;;;4.93;;
48685;SDS011;34485;51.536;3.816;2023-12-04T11:30:00;4.82;;;4.43;;
48685;SDS011;34485;51.536;3.816;2023-12-04T11:32:28;4.70;;;3.80;;
48685;SDS011;34485;51.536;3.816;2023-12-04T11:34:55;4.90;;;4.50;;
48685;SDS011;34485;51.536;3.816;2023-12-04T11:37:24;7.68;;;4.38;;
48685;SDS011;34485;51.536;3.816;2023-12-04T11:39:51;6.80;;;4.85;;
48685;SDS011;34485;51.536;3.816;2023-12-04T11:42:24;4.35;;;3.95;;
48685;SDS011;34485;51.536;3.816;2023-12-04T11:44:55;4.30;;;3.90;;
48685;SDS011;34485;51.536;3.816;2023-12-04T11:47:23;6.25;;;5.10;;
48685;SDS011;34485;51.536;3.816;2023-12-04T11:49:49;4.57;;;4.15;;
48685;SDS011;34485;51.536;3.816;2023-12-04T11:52:15;5.17;;;4.67;;
48685;SDS011;34485;51.536;3.816;2023-12-04T11:54:57;5.07;;;3.50;;
48685;SDS011;34485;51.536;3.816;2023-12-04T11:57:24;4.68;;;4.25;;
48685;SDS011;34485;51.536;3.816;2023-12-04T12:00:13;8.00;;;4.63;;
48685;SDS011;34485;51.536;3.816;2023-12-04T12:02:40;3.53;;;3.23;;
48685;SDS011;34485;51.536;3.816;2023-12-04T12:05:06;3.08;;;2.78;;
48685;SDS011;34485;51.536;3.816;2023-12-04T12:07:33;5.10;;;4.53;;
48685;SDS011;34485;51.536;3.816;2023-12-04T12:09:59;6.18;;;4.88;;
48685;SDS011;34485;51.536;3.816;2023-12-04T12:12:25;4.07;;;3.77;;
48685;SDS011;34485;51.536;3.816;2023-12-04T12:14:52;5.55;;;4.85;;
48685;SDS011;34485;51.536;3.816;2023-12-04T12:17:18;5.40;;;4.90;;
48685;SDS011;34485;51.536;3.816;2023-12-04T12:19:44;4.88;;;4.47;;
48685;SDS011;34485;51.536;3.816;2023-12-04T12:22:11;4.68;;;4.15;;
48685;SDS011;34485;51.536;3.816;2023-12-04T12:24:37;7.05;;;5.80;;
48685;SDS011;34485;51.536;3.816;2023-12-04T12:27:02;5.80;;;5.27;;
48685;SDS011;34485;51.536;3.816;2023-12-04T12:29:28;8.02;;;5.10;;
48685;SDS011;34485;51.536;3.816;2023-12-04T12:31:54;5.68;;;5.07;;
48685;SDS011;34485;51.536;3.816;2023-12-04T12:34:20;5.03;;;4.53;;
48685;SDS011;34485;51.536;3.816;2023-12-04T12:36:46;4.40;;;4.00;;
48685;SDS011;34485;51.536;3.816;2023-12-04T12:39:12;3.45;;;3.15;;
48685;SDS011;34485;51.536;3.816;2023-12-04T12:41:38;5.47;;;4.13;;
48685;SDS011;34485;51.536;3.816;2023-12-04T12:44:04;6.07;;;5.25;;
48685;SDS011;34485;51.536;3.816;2023-12-04T12:46:30;4.57;;;4.18;;
48685;SDS011;34485;51.536;3.816;2023-12-04T12:48:57;3.90;;;3.67;;
48685;SDS011;34485;51.536;3.816;2023-12-04T12:51:23;3.63;;;3.33;;
48685;SDS011;34485;51.536;3.816;2023-12-04T12:53:49;6.15;;;5.35;;
48685;SDS011;34485;51.536;3.816;2023-12-04T12:56:16;7.90;;;6.10;;
48685;SDS011;34485;51.536;3.816;2023-12-04T12:58:42;9.30;;;5.70;;
48685;SDS011;34485;51.536;3.816;2023-12-04T13:01:10;4.68;;;4.13;;
48685;SDS011;34485;51.536;3.816;2023-12-04T13:03:37;5.22;;;4.82;;
48685;SDS011;34485;51.536;3.816;2023-12-04T13:06:03;6.50;;;5.63;;
48685;SDS011;34485;51.536;3.816;2023-12-04T13:08:29;5.68;;;5.15;;
48685;SDS011;34485;51.536;3.816;2023-12-04T13:10:55;6.67;;;5.83;;
48685;SDS011;34485;51.536;3.816;2023-12-04T13:13:21;5.03;;;4.53;;
48685;SDS011;34485;51.536;3.816;2023-12-04T13:15:46;6.57;;;4.45;;
48685;SDS011;34485;51.536;3.816;2023-12-04T13:18:12;6.05;;;5.38;;
48685;SDS011;34485;51.536;3.816;2023-12-04T13:20:38;7.05;;;6.20;;
48685;SDS011;34485;51.536;3.816;2023-12-04T13:23:03;10.10;;;5.80;;
48685;SDS011;34485;51.536;3.816;2023-12-04T13:25:29;5.28;;;4.63;;
48685;SDS011;34485;51.536;3.816;2023-12-04T13:27:55;7.37;;;5.90;;
48685;SDS011;34485;51.536;3.816;2023-12-04T13:30:21;7.88;;;6.22;;
48685;SDS011;34485;51.536;3.816;2023-12-04T13:32:46;7.53;;;5.77;;
48685;SDS011;34485;51.536;3.816;2023-12-04T13:35:15;5.53;;;5.03;;
48685;SDS011;34485;51.536;3.816;2023-12-04T13:37:41;7.22;;;6.43;;
48685;SDS011;34485;51.536;3.816;2023-12-04T13:40:07;8.10;;;6.05;;
48685;SDS011;34485;51.536;3.816;2023-12-04T13:42:33;8.25;;;5.47;;
48685;SDS011;34485;51.536;3.816;2023-12-04T13:45:17;6.50;;;4.90;;
48685;SDS011;34485;51.536;3.816;2023-12-04T13:47:46;12.27;;;5.53;;
48685;SDS011;34485;51.536;3.816;2023-12-04T13:50:11;8.30;;;6.77;;
48685;SDS011;34485;51.536;3.816;2023-12-04T13:52:37;8.25;;;6.53;;
48685;SDS011;34485;51.536;3.816;2023-12-04T13:55:04;7.43;;;5.38;;
48685;SDS011;34485;51.536;3.816;2023-12-04T13:57:53;10.00;;;8.02;;
48685;SDS011;34485;51.536;3.816;2023-12-04T14:00:22;7.78;;;6.93;;
48685;SDS011;34485;51.536;3.816;2023-12-04T14:02:47;6.90;;;5.97;;
48685;SDS011;34485;51.536;3.816;2023-12-04T14:05:13;10.70;;;7.10;;
48685;SDS011;34485;51.536;3.816;2023-12-04T14:07:40;8.32;;;7.35;;
48685;SDS011;34485;51.536;3.816;2023-12-04T14:10:08;7.20;;;6.45;;
48685;SDS011;34485;51.536;3.816;2023-12-04T14:12:34;9.73;;;7.18;;
48685;SDS011;34485;51.536;3.816;2023-12-04T14:15:02;11.47;;;7.60;;
48685;SDS011;34485;51.536;3.816;2023-12-04T14:17:28;9.52;;;7.38;;
48685;SDS011;34485;51.536;3.816;2023-12-04T14:19:54;8.48;;;7.47;;
48685;SDS011;34485;51.536;3.816;2023-12-04T14:22:20;10.75;;;8.00;;
48685;SDS011;34485;51.536;3.816;2023-12-04T14:24:45;5.93;;;4.50;;
48685;SDS011;34485;51.536;3.816;2023-12-04T14:27:11;13.33;;;8.40;;
48685;SDS011;34485;51.536;3.816;2023-12-04T14:29:37;14.50;;;7.97;;
48685;SDS011;34485;51.536;3.816;2023-12-04T14:32:05;15.55;;;8.85;;
48685;SDS011;34485;51.536;3.816;2023-12-04T14:34:31;15.05;;;8.82;;
48685;SDS011;34485;51.536;3.816;2023-12-04T14:36:57;9.63;;;6.40;;
48685;SDS011;34485;51.536;3.816;2023-12-04T14:39:23;10.90;;;9.03;;
48685;SDS011;34485;51.536;3.816;2023-12-04T14:41:49;8.07;;;6.18;;
48685;SDS011;34485;51.536;3.816;2023-12-04T14:44:16;12.98;;;8.88;;
48685;SDS011;34485;51.536;3.816;2023-12-04T14:46:41;12.33;;;8.90;;